Cunningham, Kentucky
Current Conditions -  °F | °C
As of 5:29 PM on Monday 22 Dec 2014 (Local Time) from KPAH Reporting Station
Overcast Overcast  
Wind Chill: 53°   Ceiling: 2200
Heat Index: 53°   Visibility: 8mi
Dew Point: 50°   Wind: 10mph
Humidity: 89%   Direction: 160°SSE
Pressure: 29.62"   Gusts: NA
Location:  36.91°N, 88.89°W
Report Text: KPAH 222329Z AUTO 16009KT 8SM SCT015 BKN022 OVC042 12/10 A2962 RMK AO2 RAB2259E29 P0002 T01170100
Loading
Personal Weather Stations






























Interactive Weather Map New forecast layout! Learn more

10-Day Weather Forecast

Advertisements
Track Severe Weather on mobile